createdAt,value
2022-12-10T00:01:43.867Z,-2.28
2022-12-10T00:04:13.103Z,-2.25
2022-12-10T00:06:42.390Z,-2.23
2022-12-10T00:09:15.447Z,-2.26
2022-12-10T00:11:43.505Z,-2.21
2022-12-10T00:14:13.997Z,-2.33
2022-12-10T00:16:41.982Z,-2.25
2022-12-10T00:19:09.474Z,-2.37
2022-12-10T00:21:37.764Z,-2.36
2022-12-10T00:24:06.152Z,-2.23
2022-12-10T00:26:37.909Z,-2.33
2022-12-10T00:29:08.603Z,-2.53
2022-12-10T00:31:38.507Z,-2.45
2022-12-10T00:34:10.243Z,-2.42
2022-12-10T00:36:49.040Z,-2.29
2022-12-10T00:39:21.415Z,-2.42
2022-12-10T00:41:48.922Z,-2.44
2022-12-10T00:44:16.883Z,-2.50
2022-12-10T00:46:44.184Z,-2.42
2022-12-10T00:49:12.362Z,-2.40
2022-12-10T00:51:39.812Z,-2.44
2022-12-10T00:54:08.307Z,-2.40
2022-12-10T00:56:35.614Z,-2.39
2022-12-10T00:59:03.883Z,-2.40
2022-12-10T01:01:42.279Z,-2.33
2022-12-10T01:04:19.453Z,-2.32
2022-12-10T01:06:55.082Z,-2.26
2022-12-10T01:09:26.598Z,-2.26
2022-12-10T01:11:56.457Z,-2.34
2022-12-10T01:14:32.105Z,-2.37
2022-12-10T01:17:05.850Z,-2.25
2022-12-10T01:19:34.735Z,-2.44
2022-12-10T01:22:02.196Z,-2.37
2022-12-10T01:24:30.519Z,-2.14
2022-12-10T01:26:58.525Z,-2.28
2022-12-10T01:29:26.227Z,-2.34
2022-12-10T01:31:57.161Z,-2.48
2022-12-10T01:34:27.815Z,-2.33
2022-12-10T01:36:55.594Z,-2.53
2022-12-10T01:39:24.073Z,-2.47
2022-12-10T01:41:58.761Z,-2.33
2022-12-10T01:44:25.612Z,-2.53
2022-12-10T01:47:00.072Z,-2.44
2022-12-10T01:49:40.854Z,-2.49
2022-12-10T01:52:12.035Z,-2.46
2022-12-10T01:54:46.126Z,-2.44
2022-12-10T01:57:21.550Z,-2.48
2022-12-10T01:59:55.309Z,-2.52
2022-12-10T02:02:59.827Z,-2.38
2022-12-10T02:05:52.421Z,-2.50
2022-12-10T02:08:45.287Z,-2.39
2022-12-10T02:11:29.208Z,-2.43
2022-12-10T02:15:04.037Z,-2.52
2022-12-10T02:17:40.232Z,-2.53
2022-12-10T02:20:20.402Z,-2.54
2022-12-10T02:23:03.067Z,-2.39
2022-12-10T02:25:55.295Z,-2.50
2022-12-10T02:29:25.655Z,-2.40
2022-12-10T02:32:15.594Z,-2.39
2022-12-10T02:34:55.417Z,-2.53
2022-12-10T02:37:35.716Z,-2.50
2022-12-10T02:40:16.571Z,-2.35
2022-12-10T02:42:47.659Z,-2.32
2022-12-10T02:45:15.093Z,-2.35
2022-12-10T02:47:42.715Z,-2.27
2022-12-10T02:50:13.762Z,-2.25
2022-12-10T02:52:40.695Z,-2.28
2022-12-10T02:55:12.765Z,-2.38
2022-12-10T02:58:30.139Z,-2.19
2022-12-10T03:01:28.593Z,-2.19
2022-12-10T03:04:10.967Z,-2.34
2022-12-10T03:06:58.842Z,-2.17
2022-12-10T03:09:56.207Z,-2.19
2022-12-10T03:12:59.915Z,-2.15
2022-12-10T03:15:31.116Z,-2.14
2022-12-10T03:18:00.460Z,-2.29
2022-12-10T03:20:27.890Z,-2.12
2022-12-10T03:22:55.858Z,-2.15
2022-12-10T03:25:29.401Z,-2.05
2022-12-10T03:27:59.690Z,-1.93
2022-12-10T03:30:27.342Z,-2.16
2022-12-10T03:32:54.805Z,-2.14
2022-12-10T03:35:24.976Z,-2.20
2022-12-10T03:37:52.421Z,-2.21
2022-12-10T03:40:25.453Z,-2.14
2022-12-10T03:42:52.710Z,-2.01
2022-12-10T03:45:19.969Z,-2.15
2022-12-10T03:47:47.156Z,-2.06
2022-12-10T03:50:14.235Z,-2.15
2022-12-10T03:52:41.206Z,-2.17
2022-12-10T03:55:10.148Z,-2.10
2022-12-10T03:57:37.220Z,-2.08
2022-12-10T04:00:07.484Z,-1.95
2022-12-10T04:02:34.741Z,-2.08
2022-12-10T04:05:01.896Z,-2.04
2022-12-10T04:07:28.914Z,-2.06
2022-12-10T04:09:55.927Z,-2.01
2022-12-10T04:12:22.920Z,-1.91
2022-12-10T04:15:08.590Z,-1.85
2022-12-10T04:17:35.750Z,-1.97
2022-12-10T04:20:03.005Z,-1.86
2022-12-10T04:22:48.829Z,-1.92
2022-12-10T04:25:34.147Z,-1.86
2022-12-10T04:28:01.081Z,-1.84
2022-12-10T04:30:28.048Z,-1.87
2022-12-10T04:32:55.026Z,-1.79
2022-12-10T04:35:22.003Z,-1.89
2022-12-10T04:37:49.002Z,-1.85
2022-12-10T04:40:16.052Z,-1.90
2022-12-10T04:42:43.079Z,-1.74
2022-12-10T04:45:10.847Z,-1.93
2022-12-10T04:47:37.858Z,-1.96
2022-12-10T04:50:05.744Z,-1.97
2022-12-10T04:52:32.745Z,-1.95
2022-12-10T04:55:00.030Z,-1.94
2022-12-10T04:57:27.012Z,-2.00
2022-12-10T04:59:54.028Z,-1.99
2022-12-10T05:02:21.078Z,-1.97
2022-12-10T05:04:50.496Z,-1.96
2022-12-10T05:07:17.560Z,-1.83
2022-12-10T05:09:44.590Z,-1.88
2022-12-10T05:12:11.565Z,-1.95
2022-12-10T05:14:38.722Z,-1.95
2022-12-10T05:17:05.829Z,-1.74
2022-12-10T05:19:32.849Z,-1.87
2022-12-10T05:22:18.428Z,-1.71
2022-12-10T05:24:45.404Z,-1.78
2022-12-10T05:27:12.409Z,-1.71
2022-12-10T05:29:39.377Z,-1.69
2022-12-10T05:32:06.835Z,-1.82
2022-12-10T05:34:33.920Z,-1.73
2022-12-10T05:37:00.929Z,-1.80
2022-12-10T05:39:27.932Z,-1.73
2022-12-10T05:41:54.927Z,-1.74
2022-12-10T05:44:22.053Z,-1.84
2022-12-10T05:46:49.491Z,-1.81
2022-12-10T05:49:16.509Z,-1.74
2022-12-10T05:51:43.470Z,-1.81
2022-12-10T05:54:11.060Z,-1.86
2022-12-10T05:56:38.735Z,-1.68
2022-12-10T05:59:08.855Z,-1.84
2022-12-10T06:01:40.006Z,-1.89
2022-12-10T06:04:07.378Z,-1.83
2022-12-10T06:06:38.714Z,-1.79
2022-12-10T06:09:10.510Z,-1.63
2022-12-10T06:11:37.500Z,-1.59
2022-12-10T06:14:04.598Z,-1.65
2022-12-10T06:16:31.733Z,-1.77
2022-12-10T06:18:59.414Z,-1.74
2022-12-10T06:21:26.843Z,-1.85
2022-12-10T06:23:54.237Z,-1.82
2022-12-10T06:26:26.293Z,-1.99
2022-12-10T06:28:54.497Z,-2.06
2022-12-10T06:31:22.620Z,-2.04
2022-12-10T06:33:49.701Z,-1.87
2022-12-10T06:36:18.310Z,-2.06
2022-12-10T06:38:45.910Z,-1.95
2022-12-10T06:41:15.757Z,-2.17
2022-12-10T06:43:43.141Z,-2.02
2022-12-10T06:46:15.056Z,-1.98
2022-12-10T06:48:43.074Z,-1.83
2022-12-10T06:51:12.574Z,-2.05
2022-12-10T06:53:41.834Z,-1.97
2022-12-10T06:56:13.952Z,-2.00
2022-12-10T06:58:44.791Z,-1.92
2022-12-10T07:01:22.926Z,-2.03
2022-12-10T07:03:53.125Z,-2.12
2022-12-10T07:06:21.002Z,-2.08
2022-12-10T07:08:49.179Z,-2.07
2022-12-10T07:11:21.467Z,-2.04
2022-12-10T07:13:48.706Z,-1.75
2022-12-10T07:16:23.267Z,-2.05
2022-12-10T07:18:52.776Z,-1.93
2022-12-10T07:21:23.901Z,-2.06
2022-12-10T07:23:54.772Z,-2.00
2022-12-10T07:26:23.175Z,-1.99
2022-12-10T07:28:53.641Z,-2.01
2022-12-10T07:31:23.018Z,-2.19
2022-12-10T07:33:52.660Z,-2.17
2022-12-10T07:36:23.361Z,-1.96
2022-12-10T07:38:54.310Z,-1.99
2022-12-10T07:41:23.334Z,-1.91
2022-12-10T07:43:54.012Z,-2.00
2022-12-10T07:46:29.379Z,-1.81
2022-12-10T07:48:56.521Z,-1.93
2022-12-10T07:51:24.189Z,-1.92
2022-12-10T07:53:55.700Z,-1.55
2022-12-10T07:56:25.298Z,-1.49
2022-12-10T07:58:53.468Z,-1.63
2022-12-10T08:01:27.542Z,-1.45
2022-12-10T08:03:59.800Z,-1.60
2022-12-10T08:06:30.043Z,-1.81
2022-12-10T08:08:59.743Z,-1.81
2022-12-10T08:11:27.945Z,-1.58
2022-12-10T08:13:57.528Z,-1.38
2022-12-10T08:16:30.252Z,-1.24
2022-12-10T08:19:00.586Z,-1.34
2022-12-10T08:21:33.544Z,-1.54
2022-12-10T08:24:03.775Z,-1.60
2022-12-10T08:26:34.213Z,-1.62
2022-12-10T08:29:02.047Z,-1.79
2022-12-10T08:31:35.717Z,-1.87
2022-12-10T08:34:05.867Z,-1.74
2022-12-10T08:36:32.934Z,-1.69
2022-12-10T08:39:00.558Z,-1.82
2022-12-10T08:44:13.661Z,-1.50
2022-12-10T08:46:41.269Z,-1.29
2022-12-10T08:49:08.499Z,-1.34
2022-12-10T08:51:36.368Z,-1.41
2022-12-10T08:54:06.449Z,-1.41
2022-12-10T08:56:33.752Z,-1.31
2022-12-10T08:59:01.017Z,-1.28
2022-12-10T09:01:29.380Z,-1.17
2022-12-10T09:03:56.475Z,-1.48
2022-12-10T09:06:25.316Z,-1.11
2022-12-10T09:08:53.227Z,-1.27
2022-12-10T09:11:30.891Z,-1.07
2022-12-10T09:13:59.163Z,-1.13
2022-12-10T09:16:36.808Z,-1.47
2022-12-10T09:19:05.254Z,-1.25
2022-12-10T09:21:32.875Z,-1.32
2022-12-10T09:24:00.487Z,-1.30
2022-12-10T09:26:27.987Z,-1.31
2022-12-10T09:28:55.664Z,-1.08
2022-12-10T09:31:22.853Z,-0.97
2022-12-10T09:33:53.276Z,-1.30
2022-12-10T09:36:22.219Z,-1.37
2022-12-10T09:38:50.985Z,-1.22
2022-12-10T09:42:22.442Z,-1.09
2022-12-10T09:45:07.398Z,-1.11
2022-12-10T09:48:04.975Z,-0.89
2022-12-10T09:51:05.593Z,-0.88
2022-12-10T09:53:33.501Z,-1.09
2022-12-10T09:56:01.145Z,-1.19
2022-12-10T09:58:30.292Z,-1.20
2022-12-10T10:01:06.126Z,-0.98
2022-12-10T10:03:41.314Z,-1.19
2022-12-10T10:06:15.578Z,-1.05
2022-12-10T10:08:58.477Z,-0.90
2022-12-10T10:11:34.488Z,-1.00
2022-12-10T10:14:13.261Z,-1.00
2022-12-10T10:17:22.617Z,-1.19
2022-12-10T10:19:50.450Z,-0.87
2022-12-10T10:22:17.611Z,-0.65
2022-12-10T10:24:47.536Z,-0.90
2022-12-10T10:27:23.260Z,-0.77
2022-12-10T10:29:57.873Z,-0.85
2022-12-10T10:32:37.062Z,-0.94
2022-12-10T10:35:06.499Z,-0.91
2022-12-10T10:37:36.411Z,-1.09
2022-12-10T10:40:04.045Z,-1.04
2022-12-10T10:42:44.463Z,-0.90
2022-12-10T10:45:33.673Z,-1.08
2022-12-10T10:48:18.039Z,-1.13
2022-12-10T10:51:06.706Z,-1.15
2022-12-10T10:53:39.718Z,-0.72
2022-12-10T10:56:18.289Z,-0.67
2022-12-10T10:58:58.356Z,-0.61
2022-12-10T11:01:44.593Z,-0.74
2022-12-10T11:04:11.895Z,-0.74
2022-12-10T11:06:40.692Z,-0.89
2022-12-10T11:09:08.132Z,-0.89
2022-12-10T11:11:44.283Z,-0.86
2022-12-10T11:14:44.450Z,-0.54
2022-12-10T11:17:11.272Z,-0.94
2022-12-10T11:20:37.443Z,-0.73
2022-12-10T11:23:14.508Z,-0.79
2022-12-10T11:26:06.097Z,-0.91
2022-12-10T11:29:12.844Z,-0.82
2022-12-10T11:32:03.884Z,-0.94
2022-12-10T11:35:10.377Z,-0.97
2022-12-10T11:37:50.682Z,-0.86
2022-12-10T11:40:50.813Z,-0.89
2022-12-10T11:43:48.286Z,-0.70
2022-12-10T11:46:49.969Z,-0.89
2022-12-10T11:50:10.942Z,-0.84
2022-12-10T11:53:17.080Z,-0.79
2022-12-10T11:56:27.116Z,-0.92
2022-12-10T11:59:52.868Z,-0.76
2022-12-10T12:02:59.099Z,-0.80
2022-12-10T12:05:53.133Z,-0.75
2022-12-10T12:09:00.250Z,-0.93
2022-12-10T12:11:56.731Z,-0.92
2022-12-10T12:14:56.192Z,-0.88
2022-12-10T12:17:38.458Z,-0.94
2022-12-10T12:20:40.645Z,-0.61
2022-12-10T12:23:30.577Z,-0.92
2022-12-10T12:26:09.248Z,-0.63
2022-12-10T12:28:51.629Z,-0.82
2022-12-10T12:32:01.472Z,-0.79
2022-12-10T12:35:01.048Z,-0.65
2022-12-10T12:37:47.114Z,-0.75
2022-12-10T12:40:22.126Z,-0.83
2022-12-10T12:43:13.953Z,-0.84
2022-12-10T12:45:49.350Z,-0.75
2022-12-10T12:48:54.438Z,-0.55
2022-12-10T12:51:39.907Z,-0.79
2022-12-10T12:54:12.859Z,-0.91
2022-12-10T12:57:15.587Z,-0.96
2022-12-10T13:00:19.314Z,-0.86
2022-12-10T13:03:37.276Z,-0.49
2022-12-10T13:06:30.634Z,-0.53
2022-12-10T13:09:12.502Z,-0.61
2022-12-10T13:12:07.148Z,-0.52
2022-12-10T13:15:01.115Z,-0.54
2022-12-10T13:17:39.240Z,-0.38
2022-12-10T13:20:28.202Z,-0.62
2022-12-10T13:23:00.952Z,-0.68
2022-12-10T13:25:54.615Z,-0.68
2022-12-10T13:28:52.323Z,-0.86
2022-12-10T13:31:39.601Z,-0.55
2022-12-10T13:34:33.439Z,-0.50
2022-12-10T13:37:07.584Z,-0.50
2022-12-10T13:40:00.546Z,-0.63
2022-12-10T13:42:56.990Z,-0.65
2022-12-10T13:45:25.830Z,-0.71
2022-12-10T13:48:26.191Z,-0.70
2022-12-10T13:51:47.541Z,-0.74
2022-12-10T13:55:07.570Z,-0.68
2022-12-10T13:58:35.461Z,-0.51
2022-12-10T14:01:39.032Z,-0.52
2022-12-10T14:04:48.524Z,-0.64
2022-12-10T14:07:17.643Z,-0.92
2022-12-10T14:09:58.586Z,-0.86
2022-12-10T14:12:40.559Z,-0.73
2022-12-10T14:15:24.254Z,-0.70
2022-12-10T14:18:16.758Z,-0.72
2022-12-10T14:20:53.281Z,-0.63
2022-12-10T14:23:34.910Z,-0.74
2022-12-10T14:26:33.268Z,-0.94
2022-12-10T14:29:24.259Z,-0.74
2022-12-10T14:31:56.394Z,-0.66
2022-12-10T14:34:29.444Z,-0.54
2022-12-10T14:37:02.952Z,-0.92
2022-12-10T14:39:34.640Z,-0.51
2022-12-10T14:42:06.390Z,-0.65
2022-12-10T14:44:40.079Z,-0.58
2022-12-10T14:47:21.516Z,-0.65
2022-12-10T14:49:54.336Z,-0.81
2022-12-10T14:52:36.197Z,-0.67
2022-12-10T14:55:04.012Z,-0.69
2022-12-10T14:57:43.373Z,-0.55
2022-12-10T15:00:23.360Z,-0.62
2022-12-10T15:02:54.465Z,-0.61
2022-12-10T15:05:34.904Z,-0.70
2022-12-10T15:08:24.445Z,-0.70
2022-12-10T15:11:01.582Z,-0.60
2022-12-10T15:13:45.565Z,-0.46
2022-12-10T15:16:42.409Z,-0.61
2022-12-10T15:19:34.283Z,-0.46
2022-12-10T15:22:23.002Z,-0.47
2022-12-10T15:24:50.190Z,-0.47
2022-12-10T15:27:25.747Z,-0.48
2022-12-10T15:29:53.551Z,-0.38
2022-12-10T15:32:29.739Z,-0.82
2022-12-10T15:35:08.083Z,-0.70
2022-12-10T15:37:41.505Z,-1.07
2022-12-10T15:40:30.583Z,-1.08
2022-12-10T15:43:30.191Z,-0.91
2022-12-10T15:46:00.724Z,-0.78
2022-12-10T15:48:31.085Z,-0.88
2022-12-10T15:50:58.849Z,-1.02
2022-12-10T15:53:38.293Z,-1.03
2022-12-10T15:56:05.953Z,-0.91
2022-12-10T15:58:33.226Z,-0.75
2022-12-10T16:01:02.289Z,-0.86
2022-12-10T16:03:30.260Z,-0.70
2022-12-10T16:05:57.299Z,-0.78
2022-12-10T16:08:29.524Z,-0.76
2022-12-10T16:11:01.797Z,-0.50
2022-12-10T16:13:37.979Z,-0.55
2022-12-10T16:16:13.730Z,-0.41
2022-12-10T16:18:40.972Z,-0.74
2022-12-10T16:21:09.072Z,-0.60
2022-12-10T16:23:36.853Z,-0.67
2022-12-10T16:26:19.610Z,-0.47
2022-12-10T16:28:48.850Z,-0.82
2022-12-10T16:31:20.964Z,-0.78
2022-12-10T16:33:49.696Z,-0.97
2022-12-10T16:36:16.897Z,-1.02
2022-12-10T16:38:44.068Z,-0.98
2022-12-10T16:41:33.128Z,-0.89
2022-12-10T16:44:00.503Z,-0.82
2022-12-10T16:46:27.563Z,-1.03
2022-12-10T16:48:54.604Z,-0.80
2022-12-10T16:51:33.321Z,-0.54
2022-12-10T16:54:00.354Z,-0.44
2022-12-10T16:56:27.467Z,-0.40
2022-12-10T16:58:54.462Z,-0.50
2022-12-10T17:01:30.012Z,-0.56
2022-12-10T17:03:58.102Z,-0.48
2022-12-10T17:06:25.768Z,-0.44
2022-12-10T17:08:52.917Z,-0.44
2022-12-10T17:11:51.270Z,-0.48
2022-12-10T17:14:36.887Z,-0.39
2022-12-10T17:17:05.632Z,-0.39
2022-12-10T17:19:42.485Z,-0.58
2022-12-10T17:22:10.705Z,-0.37
2022-12-10T17:24:38.121Z,-0.31
2022-12-10T17:27:18.369Z,-0.47
2022-12-10T17:29:53.605Z,-0.40
2022-12-10T17:32:23.158Z,-0.30
2022-12-10T17:34:50.477Z,-0.23
2022-12-10T17:37:20.190Z,-0.25
2022-12-10T17:39:47.638Z,-0.46
2022-12-10T17:42:15.102Z,-0.49
2022-12-10T17:44:42.084Z,-0.67
2022-12-10T17:47:25.588Z,-0.59
2022-12-10T17:49:53.065Z,-0.44
2022-12-10T17:52:20.059Z,-0.57
2022-12-10T17:54:47.032Z,-0.76
2022-12-10T17:57:26.604Z,-0.72
2022-12-10T17:59:53.593Z,-0.79
2022-12-10T18:02:20.656Z,-0.75
2022-12-10T18:04:47.700Z,-0.78
2022-12-10T18:07:18.958Z,-0.80
2022-12-10T18:09:46.325Z,-0.77
2022-12-10T18:12:13.818Z,-0.69
2022-12-10T18:14:41.582Z,-0.84
2022-12-10T18:17:14.564Z,-0.83
2022-12-10T18:19:43.808Z,-0.64
2022-12-10T18:22:12.595Z,-0.65
2022-12-10T18:24:39.661Z,-0.72
2022-12-10T18:27:07.010Z,-0.58
2022-12-10T18:29:33.989Z,-0.68
2022-12-10T18:32:01.241Z,-0.58
2022-12-10T18:34:28.279Z,-0.55
2022-12-10T18:36:55.334Z,-0.57
2022-12-10T18:39:26.673Z,-0.97
2022-12-10T18:41:54.702Z,-0.67
2022-12-10T18:44:26.439Z,-0.91
2022-12-10T18:46:57.031Z,-0.88
2022-12-10T18:49:25.266Z,-0.90
2022-12-10T18:51:52.600Z,-0.75
2022-12-10T18:54:21.121Z,-0.69
2022-12-10T18:57:03.575Z,-0.54
2022-12-10T18:59:35.150Z,-0.61
2022-12-10T19:02:02.469Z,-0.55
2022-12-10T19:04:29.501Z,-0.74
2022-12-10T19:06:56.484Z,-0.69
2022-12-10T19:09:23.804Z,-0.68
2022-12-10T19:11:52.184Z,-0.58
2022-12-10T19:14:20.897Z,-0.47
2022-12-10T19:16:48.254Z,-0.74
2022-12-10T19:19:18.596Z,-0.69
2022-12-10T19:21:47.091Z,-0.82
2022-12-10T19:24:14.491Z,-0.78
2022-12-10T19:26:43.719Z,-0.80
2022-12-10T19:29:19.942Z,-0.88
2022-12-10T19:31:47.827Z,-0.84
2022-12-10T19:34:18.079Z,-0.93
2022-12-10T19:36:46.084Z,-1.00
2022-12-10T19:39:25.296Z,-1.00
2022-12-10T19:41:55.207Z,-0.87
2022-12-10T19:44:22.480Z,-0.93
2022-12-10T19:46:50.884Z,-0.87
2022-12-10T19:49:19.458Z,-0.76
2022-12-10T19:51:47.686Z,-0.80
2022-12-10T19:54:15.296Z,-0.73
2022-12-10T19:56:43.333Z,-0.66
2022-12-10T19:59:18.754Z,-0.87
2022-12-10T20:01:46.849Z,-0.92
2022-12-10T20:04:16.834Z,-0.91
2022-12-10T20:06:48.466Z,-0.99
2022-12-10T20:09:23.580Z,-1.05
2022-12-10T20:11:51.635Z,-1.05
2022-12-10T20:14:19.866Z,-0.99
2022-12-10T20:16:50.948Z,-1.19
2022-12-10T20:19:21.857Z,-1.10
2022-12-10T20:21:49.061Z,-1.17
2022-12-10T20:24:16.327Z,-0.99
2022-12-10T20:26:48.519Z,-1.13
2022-12-10T20:29:24.972Z,-1.04
2022-12-10T20:31:57.157Z,-1.00
2022-12-10T20:34:25.554Z,-0.93
2022-12-10T20:36:53.286Z,-1.10
2022-12-10T20:39:29.748Z,-1.00
2022-12-10T20:41:58.081Z,-1.17
2022-12-10T20:44:27.510Z,-1.05
2022-12-10T20:46:55.635Z,-0.97
2022-12-10T20:49:25.569Z,-0.98
2022-12-10T20:51:53.470Z,-0.93
2022-12-10T20:54:20.535Z,-0.85
2022-12-10T20:56:47.600Z,-0.80
2022-12-10T20:59:16.828Z,-1.22
2022-12-10T21:01:44.346Z,-1.22
2022-12-10T21:04:12.575Z,-1.25
2022-12-10T21:06:43.101Z,-1.12
2022-12-10T21:09:12.897Z,-0.81
2022-12-10T21:11:39.936Z,-0.98
2022-12-10T21:14:13.867Z,-1.00
2022-12-10T21:16:50.993Z,-0.87
2022-12-10T21:19:20.050Z,-0.87
2022-12-10T21:21:47.073Z,-0.97
2022-12-10T21:24:14.042Z,-0.91
2022-12-10T21:26:41.028Z,-0.77
2022-12-10T21:29:08.924Z,-0.75
2022-12-10T21:31:36.265Z,-0.93
2022-12-10T21:34:03.584Z,-0.98
2022-12-10T21:36:34.609Z,-1.19
2022-12-10T21:39:02.949Z,-1.04
2022-12-10T21:41:48.867Z,-1.02
2022-12-10T21:44:16.750Z,-0.79
2022-12-10T21:46:43.858Z,-0.82
2022-12-10T21:49:11.609Z,-0.85
2022-12-10T21:51:40.466Z,-0.87
2022-12-10T21:54:09.264Z,-0.90
2022-12-10T21:56:37.110Z,-0.96
2022-12-10T21:59:04.763Z,-1.03
2022-12-10T22:01:32.240Z,-0.96
2022-12-10T22:03:59.300Z,-0.94
2022-12-10T22:06:28.812Z,-0.81
2022-12-10T22:08:56.570Z,-1.03
2022-12-10T22:11:23.552Z,-1.03
2022-12-10T22:13:56.199Z,-1.26
2022-12-10T22:16:23.617Z,-1.13
2022-12-10T22:18:50.926Z,-1.13
2022-12-10T22:21:23.389Z,-1.33
2022-12-10T22:23:55.360Z,-1.36
2022-12-10T22:26:23.054Z,-1.23
2022-12-10T22:28:50.604Z,-1.18
2022-12-10T22:31:19.854Z,-1.21
2022-12-10T22:33:47.150Z,-1.22
2022-12-10T22:36:15.652Z,-1.11
2022-12-10T22:38:43.708Z,-1.43
2022-12-10T22:41:10.735Z,-1.34
2022-12-10T22:43:53.258Z,-1.20
2022-12-10T22:46:21.742Z,-1.13
2022-12-10T22:48:48.884Z,-1.00
2022-12-10T22:51:16.115Z,-1.02
2022-12-10T22:53:43.090Z,-1.25
2022-12-10T22:56:13.499Z,-1.19
2022-12-10T22:58:41.280Z,-1.35
2022-12-10T23:01:19.709Z,-1.20
2022-12-10T23:03:49.424Z,-1.26
2022-12-10T23:06:17.859Z,-1.23
2022-12-10T23:08:45.096Z,-1.19
2022-12-10T23:11:14.858Z,-1.13
2022-12-10T23:13:43.070Z,-0.94
2022-12-10T23:16:17.985Z,-0.79
2022-12-10T23:18:50.619Z,-1.01
2022-12-10T23:21:24.179Z,-1.09
2022-12-10T23:23:51.887Z,-1.04
2022-12-10T23:26:20.303Z,-0.96
2022-12-10T23:28:48.402Z,-1.09
2022-12-10T23:31:16.950Z,-0.94
2022-12-10T23:33:44.204Z,-0.97
2022-12-10T23:36:12.008Z,-1.16
2022-12-10T23:38:39.660Z,-1.19
2022-12-10T23:41:12.024Z,-1.16
2022-12-10T23:43:39.774Z,-1.29
2022-12-10T23:46:08.597Z,-1.18
2022-12-10T23:48:36.232Z,-1.11
2022-12-10T23:51:03.783Z,-0.97
2022-12-10T23:53:31.662Z,-1.06
2022-12-10T23:55:59.139Z,-1.21
2022-12-10T23:58:26.411Z,-1.20
